Time;durP1;ratioP1;P1;durP2;ratioP2;P2;SDS_P1;SDS_P2;PMS_P1;PMS_P2;Temp;Humidity;BMP_temperature;BMP_pressure;BME280_temperature;BME280_humidity;BME280_pressure;Samples;Min_cycle;Max_cycle;Signal;HPM_P1;HPM_P2
2022/06/20 04:01:11;;;;;;;7.60;3.90;;;14.10;99.90;;;;;;5631357;23;20584;-70
2022/06/20 04:03:43;;;;;;;6.47;3.78;;;14.10;99.90;;;;;;4992347;28;20950;-71
2022/06/20 04:06:14;;;;;;;10.38;3.90;;;14.10;99.90;;;;;;4993634;28;20628;-70
2022/06/20 04:11:37;;;;;;;3.83;3.53;;;14.10;99.90;;;;;;4993216;28;20486;-68
2022/06/20 04:14:09;;;;;;;4.13;3.73;;;14.20;99.90;;;;;;4993776;28;20959;-67
2022/06/20 04:16:43;;;;;;;5.40;3.63;;;14.20;99.90;;;;;;4993315;28;20803;-68
2022/06/20 04:19:14;;;;;;;4.47;3.83;;;14.30;99.90;;;;;;4992719;28;20462;-69
2022/06/20 04:21:46;;;;;;;6.00;4.07;;;14.30;99.90;;;;;;4992471;28;20514;-69
2022/06/20 04:24:20;;;;;;;5.90;3.43;;;14.30;99.90;;;;;;4992998;28;20463;-67
2022/06/20 04:26:53;;;;;;;5.53;3.30;;;14.40;99.90;;;;;;4992219;28;20959;-68
2022/06/20 04:29:25;;;;;;;3.97;3.50;;;14.40;99.90;;;;;;4993064;28;20467;-68
2022/06/20 04:31:58;;;;;;;4.20;3.17;;;14.40;99.90;;;;;;4991706;28;20967;-68
2022/06/20 04:34:31;;;;;;;3.13;3.03;;;14.50;99.90;;;;;;4992981;28;20542;-68
2022/06/20 04:37:01;;;;;;;4.40;3.57;;;14.50;99.90;;;;;;4992836;28;20463;-69
2022/06/20 04:39:37;;;;;;;3.20;3.00;;;14.50;99.90;;;;;;4992911;28;20785;-69
2022/06/20 04:42:11;;;;;;;4.53;3.23;;;14.50;99.90;;;;;;4992054;28;20489;-68
2022/06/20 04:44:43;;;;;;;4.80;3.93;;;14.50;99.90;;;;;;4992703;28;20459;-68
2022/06/20 04:47:22;;;;;;;5.07;3.77;;;14.60;99.90;;;;;;4992260;28;20823;-68
2022/06/20 04:49:49;;;;;;;4.73;3.30;;;14.60;99.90;;;;;;4992634;28;20462;-69
2022/06/20 04:52:21;;;;;;;4.23;3.93;;;14.70;99.90;;;;;;4977265;28;20504;-67
2022/06/20 04:54:48;;;;;;;5.03;3.80;;;14.70;99.90;;;;;;4972890;28;20953;-67
2022/06/20 04:57:16;;;;;;;8.23;4.20;;;14.70;99.90;;;;;;4972454;28;20913;-70
2022/06/20 04:59:44;;;;;;;5.50;3.73;;;14.70;99.90;;;;;;4973169;28;20494;-70
2022/06/20 05:02:16;;;;;;;3.73;3.43;;;14.70;99.90;;;;;;4972141;28;21004;-69
2022/06/20 05:04:46;;;;;;;6.73;3.70;;;14.80;99.90;;;;;;4972945;28;20478;-69
2022/06/20 05:07:18;;;;;;;4.00;3.70;;;14.80;99.90;;;;;;4972504;28;20468;-71
2022/06/20 05:09:50;;;;;;;3.77;3.47;;;15.00;99.90;;;;;;4972610;28;20471;-70
2022/06/20 05:12:22;;;;;;;5.33;4.87;;;15.30;99.90;;;;;;4972351;28;20506;-71
2022/06/20 05:14:55;;;;;;;3.70;3.30;;;15.40;99.90;;;;;;4972817;28;20558;-71
2022/06/20 05:17:28;;;;;;;3.10;2.90;;;15.60;99.90;;;;;;4972307;28;20571;-69
2022/06/20 05:20:00;;;;;;;4.30;3.03;;;15.60;99.90;;;;;;4972497;28;20832;-70
2022/06/20 05:22:33;;;;;;;5.90;2.77;;;15.60;99.90;;;;;;4972349;28;20483;-72
2022/06/20 05:25:05;;;;;;;4.30;3.80;;;15.70;99.90;;;;;;4972959;28;20815;-69
2022/06/20 05:27:42;;;;;;;4.17;2.47;;;15.60;99.90;;;;;;4972178;28;20487;-68
2022/06/20 05:30:17;;;;;;;3.90;3.20;;;15.60;99.90;;;;;;4972347;28;20468;-71
2022/06/20 05:32:53;;;;;;;2.80;2.60;;;15.60;99.90;;;;;;4972549;28;20581;-71
2022/06/20 05:35:24;;;;;;;3.23;2.50;;;15.50;99.90;;;;;;4972877;28;20607;-71
2022/06/20 05:37:54;;;;;;;3.67;2.80;;;15.50;99.90;;;;;;4972491;28;20471;-69
2022/06/20 05:40:27;;;;;;;5.57;2.50;;;15.50;99.90;;;;;;4971884;28;20464;-71
2022/06/20 05:42:54;;;;;;;3.33;2.97;;;15.50;99.90;;;;;;4971780;28;20836;-71
2022/06/20 05:45:23;;;;;;;11.40;2.83;;;15.70;99.90;;;;;;4972426;28;20467;-70
2022/06/20 05:47:53;;;;;;;2.67;2.47;;;16.20;99.90;;;;;;4971864;28;20467;-70
2022/06/20 05:50:45;;;;;;;3.70;2.23;;;17.10;99.90;;;;;;4972849;28;20771;-72
2022/06/20 05:53:14;;;;;;;2.90;2.30;;;18.10;99.90;;;;;;4969159;28;20526;-70
2022/06/20 05:55:45;;;;;;;3.50;2.20;;;18.80;99.90;;;;;;4972401;28;20579;-71
2022/06/20 05:58:17;;;;;;;6.33;2.20;;;19.60;99.90;;;;;;4972042;28;20544;-69
2022/06/20 06:00:45;;;;;;;2.33;2.13;;;20.30;99.90;;;;;;4971952;28;20538;-70
2022/06/20 06:03:17;;;;;;;2.10;1.60;;;20.80;99.90;;;;;;4971547;28;20466;-69
2022/06/20 06:05:47;;;;;;;3.30;1.90;;;20.90;99.90;;;;;;4972036;28;20536;-69
2022/06/20 06:08:22;;;;;;;5.20;2.07;;;21.00;99.90;;;;;;4971931;28;20496;-70
2022/06/20 06:10:53;;;;;;;5.37;2.30;;;20.30;99.90;;;;;;4971720;28;20645;-69
2022/06/20 06:13:30;;;;;;;3.27;1.90;;;19.90;99.90;;;;;;4971659;28;20499;-70
2022/06/20 06:19:05;;;;;;;6.47;2.37;;;19.60;99.90;;;;;;4951800;28;20977;-71
2022/06/20 06:21:33;;;;;;;4.20;2.30;;;19.20;99.90;;;;;;4975517;28;20482;-68
2022/06/20 06:24:01;;;;;;;5.63;2.50;;;18.90;99.90;;;;;;4975329;28;20988;-70
2022/06/20 06:26:28;;;;;;;6.13;2.70;;;18.30;99.90;;;;;;4975487;28;20463;-70
2022/06/20 06:28:56;;;;;;;5.47;2.60;;;18.00;99.90;;;;;;4975072;28;20952;-70
2022/06/20 06:31:27;;;;;;;3.17;2.20;;;17.80;99.90;;;;;;4974648;28;20972;-70
2022/06/20 06:34:01;;;;;;;2.97;2.50;;;17.60;99.90;;;;;;4975515;28;20487;-70
2022/06/20 06:36:34;;;;;;;5.57;2.70;;;17.90;99.90;;;;;;4975594;28;20463;-70
2022/06/20 06:39:07;;;;;;;5.23;2.73;;;18.00;99.90;;;;;;4975535;28;20463;-69
2022/06/20 06:41:36;;;;;;;3.07;1.77;;;18.00;99.90;;;;;;4974924;28;20487;-69
2022/06/20 06:44:13;;;;;;;9.33;2.53;;;17.70;99.90;;;;;;4975759;28;20783;-70
2022/06/20 06:46:43;;;;;;;4.00;2.90;;;17.40;99.90;;;;;;4975039;28;20460;-71
2022/06/20 06:49:23;;;;;;;4.97;2.27;;;17.10;99.90;;;;;;4975355;28;20563;-70
2022/06/20 06:51:56;;;;;;;2.37;2.23;;;17.40;99.90;;;;;;4974428;28;20493;-69
2022/06/20 06:54:27;;;;;;;3.13;2.00;;;17.50;99.90;;;;;;4974729;28;20495;-69
2022/06/20 06:56:58;;;;;;;3.20;1.90;;;17.80;99.90;;;;;;4974582;28;20544;-69
2022/06/20 06:59:30;;;;;;;4.00;2.10;;;18.00;99.90;;;;;;4974986;28;20480;-69
2022/06/20 07:02:02;;;;;;;3.20;1.83;;;17.70;99.90;;;;;;4974155;28;20491;-71
2022/06/20 07:04:36;;;;;;;4.70;1.57;;;17.30;99.90;;;;;;4975039;28;20470;-70
2022/06/20 07:07:07;;;;;;;4.47;1.83;;;17.80;99.90;;;;;;4974747;28;20487;-69
2022/06/20 07:09:36;;;;;;;2.77;1.47;;;18.70;99.90;;;;;;4974771;28;20482;-70
2022/06/20 07:12:08;;;;;;;5.30;1.90;;;19.80;99.90;;;;;;4974240;28;21033;-69
2022/06/20 07:14:41;;;;;;;2.87;1.20;;;20.90;99.90;;;;;;4974674;28;20495;-69
2022/06/20 07:17:14;;;;;;;3.70;1.90;;;21.80;99.90;;;;;;4974394;28;20467;-70
2022/06/20 07:19:46;;;;;;;4.00;1.30;;;22.50;99.90;;;;;;4974674;28;20472;-68
2022/06/20 07:22:15;;;;;;;2.50;1.63;;;21.70;99.90;;;;;;4974363;28;20497;-70
2022/06/20 07:24:44;;;;;;;4.33;1.20;;;21.00;99.90;;;;;;4974416;28;20475;-70
2022/06/20 07:27:16;;;;;;;1.73;1.20;;;20.50;99.90;;;;;;4973209;28;20467;-69
2022/06/20 07:29:47;;;;;;;2.43;1.87;;;20.10;99.90;;;;;;4974014;28;20480;-69
2022/06/20 07:32:18;;;;;;;3.90;1.23;;;19.70;99.90;;;;;;4973803;28;20491;-69
2022/06/20 07:34:52;;;;;;;5.13;1.57;;;19.40;99.90;;;;;;4974754;28;20499;-69
2022/06/20 07:37:22;;;;;;;1.70;1.60;;;19.40;99.90;;;;;;4975052;28;20486;-70
2022/06/20 07:39:57;;;;;;;3.87;2.77;;;19.60;99.90;;;;;;4976639;28;21050;-71
2022/06/20 07:42:30;;;;;;;3.07;1.17;;;20.20;99.90;;;;;;4981835;28;20988;-71
2022/06/20 07:45:02;;;;;;;1.37;1.27;;;21.00;99.90;;;;;;4980945;28;20956;-69
2022/06/20 07:47:34;;;;;;;2.57;2.03;;;21.30;99.90;;;;;;4974096;28;20472;-71
2022/06/20 07:50:07;;;;;;;1.80;1.00;;;21.10;99.90;;;;;;4974057;28;20464;-71
2022/06/20 07:52:37;;;;;;;1.70;1.30;;;20.60;99.90;;;;;;4974390;28;20487;-72
2022/06/20 07:55:09;;;;;;;4.47;1.53;;;20.60;99.90;;;;;;4974322;28;20556;-71
2022/06/20 07:57:41;;;;;;;2.63;1.20;;;20.40;99.90;;;;;;4974283;28;20936;-71
2022/06/20 08:00:14;;;;;;;3.63;1.63;;;20.10;99.90;;;;;;4974081;28;20482;-70
2022/06/20 08:02:46;;;;;;;1.30;1.30;;;20.00;99.90;;;;;;4973634;28;21014;-71
2022/06/20 08:05:19;;;;;;;0.93;0.93;;;20.20;99.90;;;;;;4974529;28;20464;-71
2022/06/20 08:07:51;;;;;;;1.70;1.00;;;20.10;99.90;;;;;;4974182;28;20464;-70
2022/06/20 08:10:26;;;;;;;8.00;1.90;;;20.20;99.90;;;;;;4974049;28;20551;-71
2022/06/20 08:12:58;;;;;;;4.40;1.50;;;20.30;99.90;;;;;;4973962;28;20921;-71
2022/06/20 08:15:29;;;;;;;3.77;1.87;;;20.20;99.90;;;;;;4990871;28;20478;-71
2022/06/20 08:17:56;;;;;;;1.43;1.33;;;19.70;99.90;;;;;;4992713;28;20569;-69
2022/06/20 08:20:27;;;;;;;1.60;1.20;;;19.30;99.90;;;;;;4992724;28;20832;-69
2022/06/20 08:22:57;;;;;;;2.17;1.50;;;18.90;99.90;;;;;;4992521;28;20948;-71
2022/06/20 08:25:28;;;;;;;1.40;1.30;;;18.70;99.90;;;;;;4992297;28;20830;-70
2022/06/20 08:28:01;;;;;;;3.33;1.83;;;18.60;99.90;;;;;;4992398;28;20463;-69
2022/06/20 08:30:34;;;;;;;4.13;1.80;;;18.50;99.90;;;;;;4992291;28;20462;-71
2022/06/20 08:33:06;;;;;;;2.50;1.27;;;18.90;99.90;;;;;;4991842;28;20463;-69
2022/06/20 08:35:41;;;;;;;3.70;2.03;;;19.90;99.90;;;;;;4992401;28;20470;-68
2022/06/20 08:38:13;;;;;;;1.40;1.30;;;21.00;99.90;;;;;;4991378;28;20466;-70
2022/06/20 08:41:13;;;;;;;2.80;1.00;;;21.90;99.90;;;;;;4992743;28;20913;-71
2022/06/20 08:44:05;;;;;;;1.37;1.27;;;22.50;99.90;;;;;;4992413;28;20475;-70
2022/06/20 08:47:07;;;;;;;1.67;1.27;;;22.10;99.90;;;;;;4991816;28;20466;-70
2022/06/20 08:50:01;;;;;;;4.13;1.40;;;21.30;99.90;;;;;;4992315;28;20470;-70
2022/06/20 08:53:01;;;;;;;2.67;1.50;;;20.70;99.90;;;;;;4992070;28;20578;-70
2022/06/20 08:55:49;;;;;;;3.00;1.77;;;20.10;99.90;;;;;;4992100;28;20490;-70
2022/06/20 08:58:25;;;;;;;3.53;1.60;;;19.50;99.90;;;;;;4991882;28;20558;-70
2022/06/20 09:01:02;;;;;;;2.17;1.67;;;19.20;99.90;;;;;;4991056;28;20498;-68
2022/06/20 09:03:55;;;;;;;1.50;1.40;;;19.00;99.90;;;;;;4983217;28;20463;-70
2022/06/20 09:06:38;;;;;;;2.10;1.50;;;18.80;99.90;;;;;;4972354;28;20464;-71
2022/06/20 09:09:29;;;;;;;2.50;1.53;;;19.00;99.90;;;;;;4972258;28;20464;-71
2022/06/20 09:12:10;;;;;;;2.20;1.40;;;19.70;99.90;;;;;;4972083;28;20511;-69
2022/06/20 09:14:53;;;;;;;3.23;1.30;;;20.50;99.90;;;;;;4972363;28;20487;-70
2022/06/20 09:17:31;;;;;;;2.20;1.30;;;21.10;99.90;;;;;;4971572;28;20467;-71
2022/06/20 09:20:09;;;;;;;1.30;1.20;;;21.40;99.90;;;;;;4972406;28;20468;-70
2022/06/20 09:22:50;;;;;;;1.27;1.20;;;21.50;99.90;;;;;;4972369;28;20516;-69
2022/06/20 09:25:36;;;;;;;2.60;1.47;;;21.70;99.90;;;;;;4972446;28;20489;-70
2022/06/20 09:28:20;;;;;;;1.20;1.10;;;21.70;99.90;;;;;;4972356;28;20461;-71
2022/06/20 09:30:55;;;;;;;1.13;1.13;;;21.70;99.90;;;;;;4972244;28;20489;-70
2022/06/20 09:33:50;;;;;;;1.23;1.10;;;21.60;99.90;;;;;;4972437;28;20465;-70
2022/06/20 09:36:40;;;;;;;1.50;1.40;;;21.60;99.90;;;;;;4972328;28;20464;-69
2022/06/20 09:39:21;;;;;;;1.60;1.30;;;21.40;99.90;;;;;;4972596;28;20473;-69
2022/06/20 09:41:59;;;;;;;1.40;1.30;;;20.80;99.90;;;;;;4971821;28;20535;-67
2022/06/20 09:44:36;;;;;;;1.20;1.20;;;20.40;99.90;;;;;;4972542;28;20460;-69
2022/06/20 09:47:13;;;;;;;1.53;1.43;;;20.10;99.90;;;;;;4972319;28;20464;-69
2022/06/20 09:49:49;;;;;;;1.63;1.57;;;19.70;99.90;;;;;;4972206;28;20467;-69
2022/06/20 09:52:29;;;;;;;1.70;1.60;;;19.40;99.90;;;;;;4972610;28;20836;-68
2022/06/20 09:55:02;;;;;;;1.57;1.50;;;19.20;99.90;;;;;;4972190;28;20483;-69
2022/06/20 09:57:40;;;;;;;1.20;1.20;;;19.10;99.90;;;;;;4972205;28;20463;-68
2022/06/20 10:00:15;;;;;;;1.90;1.80;;;19.10;99.90;;;;;;4972643;28;20468;-68
2022/06/20 10:02:51;;;;;;;2.30;1.40;;;19.00;99.90;;;;;;4972042;28;20466;-70
2022/06/20 10:05:27;;;;;;;1.47;1.47;;;18.80;99.90;;;;;;4972334;28;20455;-70
2022/06/20 10:07:58;;;;;;;1.40;1.33;;;18.70;99.90;;;;;;4972432;28;20554;-70
2022/06/20 10:10:33;;;;;;;1.90;1.37;;;18.70;99.90;;;;;;4972165;28;20476;-70
2022/06/20 10:13:11;;;;;;;1.13;1.13;;;18.80;99.90;;;;;;4971856;28;20466;-71
2022/06/20 10:15:43;;;;;;;2.57;1.67;;;18.90;99.90;;;;;;4993424;23;20503;-70
2022/06/20 10:18:22;;;;;;;1.53;1.50;;;18.80;99.90;;;;;;4971736;28;20474;-71
2022/06/20 10:20:52;;;;;;;2.07;1.90;;;18.80;99.90;;;;;;4971835;28;20527;-70
2022/06/20 10:23:33;;;;;;;2.60;1.20;;;18.70;99.90;;;;;;4972508;28;20464;-70
2022/06/20 10:26:19;;;;;;;2.00;2.00;;;18.80;99.90;;;;;;4972188;28;20494;-70
2022/06/20 10:28:49;;;;;;;1.83;1.70;;;19.00;99.90;;;;;;4971825;28;20472;-71
2022/06/20 10:31:36;;;;;;;1.23;1.23;;;19.10;99.90;;;;;;4967977;28;20483;-70
2022/06/20 10:34:08;;;;;;;1.20;1.20;;;19.30;99.90;;;;;;4952840;29;20493;-71
2022/06/20 10:36:47;;;;;;;1.77;1.27;;;19.60;99.90;;;;;;4952218;29;20548;-70
2022/06/20 10:39:24;;;;;;;1.43;1.33;;;19.80;99.90;;;;;;4952684;29;20556;-70
2022/06/20 10:42:02;;;;;;;1.43;1.20;;;20.00;99.90;;;;;;4951714;29;20960;-70
2022/06/20 10:44:41;;;;;;;1.30;1.30;;;19.90;99.90;;;;;;4952379;29;20957;-71
2022/06/20 10:47:16;;;;;;;1.53;1.53;;;19.90;99.90;;;;;;4951515;29;20484;-70
2022/06/20 10:49:55;;;;;;;1.30;1.30;;;20.10;99.90;;;;;;4952422;29;20464;-70
2022/06/20 10:52:35;;;;;;;1.90;1.50;;;20.30;99.90;;;;;;4952637;29;20517;-70
2022/06/20 10:55:11;;;;;;;1.73;1.30;;;20.30;99.90;;;;;;4951962;29;20488;-70
2022/06/20 10:57:59;;;;;;;1.43;1.30;;;20.20;99.90;;;;;;4951882;29;20548;-70
2022/06/20 11:00:30;;;;;;;2.43;1.67;;;20.20;99.90;;;;;;4952019;28;20475;-70
2022/06/20 11:03:19;;;;;;;1.70;1.60;;;20.30;99.90;;;;;;4955172;28;20471;-70
2022/06/20 11:05:53;;;;;;;1.80;1.70;;;20.30;99.90;;;;;;4955535;28;20483;-70
2022/06/20 11:08:32;;;;;;;2.10;2.00;;;20.30;99.90;;;;;;4955939;28;20465;-70
2022/06/20 11:11:11;;;;;;;1.60;1.50;;;20.40;99.90;;;;;;4955243;28;20471;-70
2022/06/20 11:13:46;;;;;;;1.90;1.80;;;20.60;99.90;;;;;;4955250;28;20496;-70
2022/06/20 11:16:23;;;;;;;1.80;1.70;;;20.90;99.90;;;;;;4954360;28;20502;-70
2022/06/20 11:18:59;;;;;;;1.50;1.50;;;21.20;97.90;;;;;;4955277;28;20460;-70
2022/06/20 11:21:36;;;;;;;1.83;1.70;;;21.50;97.80;;;;;;4955106;28;20976;-70
2022/06/20 11:24:14;;;;;;;1.40;1.30;;;21.50;97.50;;;;;;4955127;28;20479;-69
2022/06/20 11:26:48;;;;;;;2.30;1.53;;;21.40;97.70;;;;;;4954348;28;20487;-70
2022/06/20 11:29:29;;;;;;;4.57;1.93;;;21.10;97.60;;;;;;4955403;28;20637;-70
2022/06/20 11:32:11;;;;;;;3.17;2.57;;;20.80;98.00;;;;;;4954343;28;20472;-70
2022/06/20 11:34:56;;;;;;;1.83;1.83;;;20.60;98.70;;;;;;4955208;28;20492;-70
2022/06/20 11:37:34;;;;;;;1.40;1.40;;;20.20;99.90;;;;;;4954770;29;20488;-70
2022/06/20 11:40:29;;;;;;;1.80;1.80;;;20.10;99.90;;;;;;4954896;28;20464;-70
2022/06/20 11:43:16;;;;;;;1.70;1.60;;;20.10;99.90;;;;;;4954666;28;20472;-70
2022/06/20 11:45:58;;;;;;;1.80;1.70;;;20.30;99.90;;;;;;4952539;28;20519;-69
2022/06/20 11:48:37;;;;;;;2.00;1.90;;;20.20;99.90;;;;;;4955094;28;20464;-69
2022/06/20 11:51:11;;;;;;;2.90;1.90;;;20.20;99.90;;;;;;4954806;28;20468;-69
2022/06/20 11:53:48;;;;;;;3.50;2.17;;;20.30;99.90;;;;;;4962291;28;20498;-69
2022/06/20 11:56:23;;;;;;;2.20;1.83;;;20.10;99.90;;;;;;4970228;28;20487;-69
2022/06/20 11:59:07;;;;;;;2.17;2.07;;;20.10;99.90;;;;;;4973898;28;20474;-70
2022/06/20 12:01:42;;;;;;;1.97;1.70;;;20.10;99.90;;;;;;4973446;28;20464;-70
2022/06/20 12:04:17;;;;;;;2.17;2.00;;;19.80;99.80;;;;;;4973800;28;20475;-71
2022/06/20 12:06:48;;;;;;;1.93;1.80;;;20.00;99.90;;;;;;4973741;28;20605;-70
2022/06/20 12:09:22;;;;;;;1.97;1.87;;;20.10;99.60;;;;;;4974299;28;20463;-70
2022/06/20 12:12:05;;;;;;;1.90;1.80;;;20.20;98.90;;;;;;4972933;28;20956;-70
2022/06/20 12:14:40;;;;;;;1.87;1.77;;;20.30;99.10;;;;;;4973563;28;20499;-70
2022/06/20 12:17:22;;;;;;;1.30;1.30;;;20.60;99.20;;;;;;4973190;28;20514;-70
2022/06/20 12:25:48;;;;;;;2.07;1.63;;;21.00;96.30;;;;;;4973628;28;20522;-70
2022/06/20 12:28:19;;;;;;;1.37;1.27;;;21.00;96.50;;;;;;4973342;28;20475;-70
2022/06/20 12:30:46;;;;;;;2.73;1.20;;;20.60;95.80;;;;;;4969839;28;20518;-71
2022/06/20 12:33:13;;;;;;;1.70;1.60;;;20.20;96.40;;;;;;4972868;28;20522;-70
2022/06/20 12:35:48;;;;;;;1.53;1.40;;;20.10;97.40;;;;;;4973534;28;20491;-71
2022/06/20 12:38:20;;;;;;;1.53;1.53;;;20.40;96.60;;;;;;4973771;28;20479;-70
2022/06/20 12:40:50;;;;;;;1.83;1.73;;;20.40;95.90;;;;;;4973265;28;20471;-71
2022/06/20 12:43:20;;;;;;;1.47;1.37;;;20.70;96.00;;;;;;4973468;28;20464;-70
2022/06/20 12:46:16;;;;;;;3.03;1.23;;;20.90;95.60;;;;;;4973160;28;20988;-70
2022/06/20 12:49:08;;;;;;;1.10;1.10;;;21.00;94.70;;;;;;4973365;28;20468;-70
2022/06/20 12:51:47;;;;;;;1.77;1.67;;;21.00;94.60;;;;;;4972956;28;20467;-70
2022/06/20 12:54:38;;;;;;;1.67;1.50;;;21.20;95.50;;;;;;4968725;28;20471;-70
2022/06/20 12:57:19;;;;;;;1.70;1.60;;;21.30;95.20;;;;;;4953457;29;20541;-69
2022/06/20 13:00:04;;;;;;;2.07;1.97;;;21.20;94.50;;;;;;4954437;29;20479;-69
2022/06/20 13:02:49;;;;;;;1.60;1.50;;;21.00;94.60;;;;;;4954138;29;20543;-69
2022/06/20 13:05:31;;;;;;;1.70;1.40;;;20.80;94.00;;;;;;4953648;29;20548;-69
2022/06/20 13:08:24;;;;;;;3.23;1.87;;;20.80;94.30;;;;;;4953301;29;20476;-69
2022/06/20 13:11:02;;;;;;;3.50;2.20;;;21.20;95.20;;;;;;4956438;28;20459;-65
2022/06/20 13:14:05;;;;;;;1.90;1.63;;;21.50;94.50;;;;;;4971630;28;20619;-64
2022/06/20 13:16:38;;;;;;;1.90;1.30;;;21.50;94.80;;;;;;4967834;28;20487;-66
2022/06/20 13:19:29;;;;;;;1.50;1.20;;;21.50;94.30;;;;;;4967748;28;20471;-64
2022/06/20 13:22:03;;;;;;;1.20;1.10;;;21.30;91.60;;;;;;4969029;28;20937;-66
2022/06/20 13:24:49;;;;;;;1.10;1.10;;;21.30;92.60;;;;;;4971568;28;20462;-66
2022/06/20 13:27:31;;;;;;;1.37;1.30;;;21.40;92.20;;;;;;4971567;28;20483;-65
2022/06/20 13:30:04;;;;;;;1.07;1.07;;;21.60;92.20;;;;;;4966648;28;20460;-65
2022/06/20 13:32:34;;;;;;;3.03;1.63;;;21.50;91.40;;;;;;4965835;28;20987;-65
2022/06/20 13:35:12;;;;;;;3.00;1.30;;;21.30;92.10;;;;;;4970326;28;20498;-65
2022/06/20 13:37:48;;;;;;;1.23;0.90;;;21.20;93.10;;;;;;4968874;28;20476;-64
2022/06/20 13:40:27;;;;;;;1.10;1.10;;;21.00;93.70;;;;;;4959282;28;20838;-65
2022/06/20 13:43:04;;;;;;;3.83;1.47;;;20.70;94.80;;;;;;4972072;28;20467;-66
2022/06/20 13:45:40;;;;;;;1.90;1.13;;;20.40;94.70;;;;;;4972036;28;20483;-66
2022/06/20 13:48:15;;;;;;;1.30;1.30;;;20.20;95.00;;;;;;4967909;28;20463;-67
2022/06/20 13:50:47;;;;;;;3.07;1.33;;;20.00;95.10;;;;;;4971494;28;20467;-66
2022/06/20 13:53:19;;;;;;;1.42;1.15;;;20.00;95.40;;;;;;4971913;28;20541;-67
2022/06/20 13:55:54;;;;;;;2.10;1.27;;;20.10;95.60;;;;;;4971485;28;20245;-67
2022/06/20 13:58:35;;;;;;;1.20;1.20;;;20.20;95.50;;;;;;4971077;28;20467;-66
2022/06/20 14:01:05;;;;;;;1.73;1.30;;;20.60;95.10;;;;;;4969872;28;20461;-66
2022/06/20 14:03:36;;;;;;;1.47;1.47;;;20.30;95.20;;;;;;4970723;28;20223;-66
2022/06/20 14:06:09;;;;;;;0.97;0.97;;;20.40;95.80;;;;;;4957452;28;20480;-67
2022/06/20 14:08:37;;;;;;;1.40;1.30;;;20.50;94.80;;;;;;4964978;28;20540;-66
2022/06/20 14:11:10;;;;;;;1.20;1.20;;;20.50;95.40;;;;;;4971123;28;20491;-67
2022/06/20 14:13:40;;;;;;;1.33;1.33;;;20.70;93.80;;;;;;4970904;28;20467;-67
2022/06/20 14:16:20;;;;;;;2.13;1.10;;;21.00;94.00;;;;;;4970807;28;20510;-67
2022/06/20 14:18:50;;;;;;;1.10;1.07;;;21.20;92.80;;;;;;4969502;28;20840;-66
2022/06/20 14:21:17;;;;;;;1.20;1.10;;;21.50;92.60;;;;;;4955356;28;20468;-67
2022/06/20 14:23:50;;;;;;;2.90;1.10;;;21.60;92.90;;;;;;4963952;28;20537;-66
2022/06/20 14:26:33;;;;;;;1.40;1.30;;;21.30;92.40;;;;;;4971524;28;20491;-66
2022/06/20 14:29:06;;;;;;;1.27;1.20;;;21.00;92.60;;;;;;4971473;28;20555;-70
2022/06/20 14:31:39;;;;;;;0.73;0.73;;;21.10;92.40;;;;;;4970616;28;20860;-71
2022/06/20 14:34:15;;;;;;;0.90;0.90;;;21.10;91.60;;;;;;4970154;28;20876;-71
2022/06/20 14:36:50;;;;;;;1.40;1.40;;;21.20;92.00;;;;;;4970479;28;20871;-70
2022/06/20 14:39:27;;;;;;;1.40;1.10;;;21.00;92.20;;;;;;4969431;28;20459;-67
2022/06/20 14:42:02;;;;;;;1.57;1.40;;;20.90;93.30;;;;;;4955248;29;20498;-70
2022/06/20 14:44:39;;;;;;;1.27;1.20;;;20.70;94.90;;;;;;4955763;29;20464;-70
2022/06/20 14:47:26;;;;;;;1.83;1.80;;;20.50;96.50;;;;;;4955681;29;20480;-70
2022/06/20 14:49:59;;;;;;;1.47;1.47;;;20.30;97.40;;;;;;4955545;28;20463;-70
2022/06/20 14:52:30;;;;;;;1.40;1.40;;;20.30;96.70;;;;;;4965841;28;20472;-69
2022/06/20 14:55:02;;;;;;;1.10;1.10;;;20.40;97.20;;;;;;4961059;28;20468;-70
2022/06/20 14:57:36;;;;;;;2.87;1.20;;;20.80;95.50;;;;;;4972272;28;20484;-70
2022/06/20 15:00:18;;;;;;;1.43;1.33;;;21.00;93.80;;;;;;4974805;28;20463;-69
2022/06/20 15:02:52;;;;;;;1.27;1.27;;;21.00;93.80;;;;;;4974128;28;20459;-70
2022/06/20 15:05:28;;;;;;;2.53;1.40;;;20.80;93.80;;;;;;4972833;28;20570;-70
2022/06/20 15:08:04;;;;;;;1.03;1.03;;;20.80;94.00;;;;;;4972105;28;20460;-69
2022/06/20 15:10:39;;;;;;;1.50;1.40;;;20.70;93.00;;;;;;4974311;28;20460;-70
2022/06/20 15:13:26;;;;;;;2.93;1.80;;;20.60;93.30;;;;;;4973883;28;20458;-70
2022/06/20 15:15:53;;;;;;;1.90;1.40;;;20.60;93.20;;;;;;4973612;28;20491;-70
2022/06/20 15:18:27;;;;;;;1.60;1.27;;;20.50;93.10;;;;;;4974551;28;20514;-70
2022/06/20 15:21:02;;;;;;;2.00;1.90;;;20.30;93.20;;;;;;4972308;28;20467;-70
2022/06/20 15:23:36;;;;;;;1.40;1.40;;;20.20;93.70;;;;;;4974147;28;20517;-71
2022/06/20 15:26:13;;;;;;;2.40;1.57;;;20.10;93.90;;;;;;4973939;28;20479;-70
2022/06/20 15:28:45;;;;;;;1.57;1.53;;;19.90;95.00;;;;;;4973434;28;20468;-70
2022/06/20 15:31:13;;;;;;;1.33;1.33;;;20.00;95.70;;;;;;4959517;28;20489;-70
2022/06/20 15:33:42;;;;;;;2.73;1.83;;;20.10;96.30;;;;;;4955295;28;20828;-70
2022/06/20 15:36:18;;;;;;;2.20;2.10;;;20.30;96.90;;;;;;4956904;28;20502;-71
2022/06/20 15:39:06;;;;;;;1.77;1.70;;;20.50;96.80;;;;;;4962907;28;20456;-71
2022/06/20 15:41:44;;;;;;;1.50;1.50;;;20.30;96.70;;;;;;4962153;28;20456;-71
2022/06/20 15:44:24;;;;;;;1.43;1.43;;;20.00;96.50;;;;;;4974155;28;20463;-71
2022/06/20 15:46:57;;;;;;;2.03;1.93;;;19.80;96.90;;;;;;4972915;28;20475;-71
2022/06/20 15:49:32;;;;;;;1.70;1.40;;;19.90;97.00;;;;;;4974430;28;20464;-70
2022/06/20 15:52:12;;;;;;;1.83;1.60;;;20.00;96.80;;;;;;4973801;28;20546;-71
2022/06/20 15:55:05;;;;;;;1.97;1.73;;;19.90;96.50;;;;;;4969410;28;20464;-71
2022/06/20 15:57:46;;;;;;;3.13;1.87;;;19.90;96.80;;;;;;4971203;28;20492;-71
2022/06/20 16:00:20;;;;;;;1.80;1.70;;;19.90;96.90;;;;;;4954563;29;20465;-71
2022/06/20 16:02:58;;;;;;;1.53;1.50;;;20.00;96.90;;;;;;4969871;28;20519;-72
2022/06/20 16:05:33;;;;;;;1.53;1.53;;;19.70;97.50;;;;;;4973407;28;20474;-71
2022/06/20 16:08:14;;;;;;;1.63;1.30;;;19.80;98.30;;;;;;4973150;28;20469;-71
2022/06/20 16:10:45;;;;;;;1.50;1.50;;;20.30;98.30;;;;;;4969461;28;20555;-71
2022/06/20 16:13:17;;;;;;;1.90;1.80;;;20.50;97.50;;;;;;4969336;28;20475;-71
2022/06/20 16:15:48;;;;;;;1.70;1.60;;;20.80;97.20;;;;;;4972878;28;20503;-70
2022/06/20 16:18:19;;;;;;;2.63;1.67;;;20.80;95.90;;;;;;4957689;28;20996;-70
2022/06/20 16:20:59;;;;;;;2.13;1.70;;;20.80;95.60;;;;;;4954427;28;20474;-70
2022/06/20 16:23:37;;;;;;;1.50;1.50;;;20.70;95.50;;;;;;4964359;28;20512;-69
2022/06/20 16:26:14;;;;;;;1.90;1.80;;;20.30;95.50;;;;;;4967293;28;20484;-71
2022/06/20 16:28:54;;;;;;;2.07;2.00;;;20.00;95.80;;;;;;4964366;28;20460;-69
2022/06/20 16:31:25;;;;;;;3.10;2.47;;;19.80;96.40;;;;;;4973187;28;20471;-68
2022/06/20 16:33:55;;;;;;;2.47;2.47;;;19.70;96.60;;;;;;4973393;28;20995;-69
2022/06/20 16:36:29;;;;;;;1.60;1.60;;;19.50;97.20;;;;;;4973265;28;20618;-68
2022/06/20 16:38:59;;;;;;;1.70;1.60;;;19.30;97.60;;;;;;4971840;28;20467;-68
2022/06/20 16:41:38;;;;;;;1.67;1.67;;;19.30;98.20;;;;;;4970268;28;20472;-68
2022/06/20 16:44:14;;;;;;;1.73;1.70;;;19.40;98.10;;;;;;4958832;28;20456;-69
2022/06/20 16:46:49;;;;;;;2.80;1.87;;;19.70;98.10;;;;;;4953444;28;20476;-70
2022/06/20 16:49:25;;;;;;;1.70;1.70;;;19.70;97.90;;;;;;4953787;28;20464;-69
2022/06/20 16:52:07;;;;;;;4.17;2.20;;;19.80;97.90;;;;;;4953445;28;20972;-71
2022/06/20 16:54:39;;;;;;;1.80;1.80;;;19.80;98.30;;;;;;4955517;28;20462;-70
2022/06/20 16:57:14;;;;;;;1.17;1.17;;;19.90;98.00;;;;;;4971263;28;20499;-69
2022/06/20 16:59:49;;;;;;;2.00;1.90;;;19.90;97.90;;;;;;4961573;28;20463;-70
2022/06/20 17:02:22;;;;;;;1.90;1.90;;;19.90;97.10;;;;;;4972846;28;20467;-71
2022/06/20 17:05:09;;;;;;;2.17;1.97;;;20.00;97.20;;;;;;4972719;28;20464;-69
2022/06/20 17:07:45;;;;;;;1.90;1.80;;;20.10;97.40;;;;;;4972999;28;20479;-70
2022/06/20 17:10:21;;;;;;;1.57;1.47;;;20.00;97.50;;;;;;4972333;28;20459;-70
2022/06/20 17:12:58;;;;;;;2.87;1.50;;;19.70;98.00;;;;;;4970159;28;20471;-70
2022/06/20 17:15:40;;;;;;;1.80;1.80;;;19.40;98.80;;;;;;4962563;28;20463;-70
2022/06/20 17:18:16;;;;;;;1.40;1.40;;;19.10;99.60;;;;;;4963780;28;20458;-69
2022/06/20 17:20:49;;;;;;;1.90;1.80;;;19.00;99.90;;;;;;4960700;28;20542;-69
2022/06/20 17:23:28;;;;;;;1.30;1.20;;;18.90;99.90;;;;;;4968455;28;20468;-70
2022/06/20 17:26:05;;;;;;;1.50;1.50;;;18.50;99.90;;;;;;4962928;28;20503;-69
2022/06/20 17:28:44;;;;;;;1.87;1.77;;;18.20;99.90;;;;;;4956373;28;20468;-69
2022/06/20 17:31:21;;;;;;;1.47;1.47;;;18.10;99.90;;;;;;4964931;28;20464;-69
2022/06/20 17:33:54;;;;;;;1.63;1.63;;;18.00;99.90;;;;;;4964739;28;20467;-69
2022/06/20 17:36:37;;;;;;;1.60;1.60;;;17.60;99.90;;;;;;4962917;28;20501;-70
2022/06/20 17:39:17;;;;;;;1.17;1.17;;;17.30;99.90;;;;;;4972271;28;20476;-68
2022/06/20 17:41:49;;;;;;;2.10;2.00;;;16.80;99.90;;;;;;4956843;28;20475;-69
2022/06/20 17:44:21;;;;;;;2.33;2.13;;;16.20;99.90;;;;;;4968972;28;20471;-71